Time;durP1;ratioP1;P1;durP2;ratioP2;P2;SDS_P1;SDS_P2;PMS_P1;PMS_P2;Temp;Humidity;BMP_temperature;BMP_pressure;BME280_temperature;BME280_humidity;BME280_pressure;Samples;Min_cycle;Max_cycle;Signal;HPM_P1;HPM_P2
2021/01/10 00:00:14;;;;;;;47.45;14.75;;;2.50;99.90;;;;;;4970129;28;20456;-93
2021/01/10 00:02:40;;;;;;;80.90;14.05;;;2.60;99.90;;;;;;4956402;28;20065;-90
2021/01/10 00:05:09;;;;;;;72.20;15.80;;;2.50;99.90;;;;;;4970406;28;20050;-90
2021/01/10 00:07:35;;;;;;;117.28;16.55;;;2.50;99.90;;;;;;4971149;28;20062;-90
2021/01/10 00:10:04;;;;;;;146.55;17.15;;;2.50;99.90;;;;;;4969040;28;20527;-90
2021/01/10 00:12:30;;;;;;;64.80;15.75;;;2.50;99.90;;;;;;4967616;28;20045;-90
2021/01/10 00:14:55;;;;;;;191.32;18.65;;;2.60;99.90;;;;;;4954113;28;20046;-88
2021/01/10 00:17:21;;;;;;;89.07;15.80;;;2.50;99.90;;;;;;4971301;28;20074;-90
2021/01/10 00:19:48;;;;;;;60.42;14.60;;;2.40;99.90;;;;;;4984332;28;20046;-89
2021/01/10 00:22:17;;;;;;;86.07;15.50;;;2.50;99.90;;;;;;4954205;28;20053;-89
2021/01/10 00:24:43;;;;;;;97.97;16.58;;;2.50;99.90;;;;;;4986503;28;20045;-90
2021/01/10 00:27:11;;;;;;;77.15;14.98;;;2.50;99.90;;;;;;4984323;28;20484;-90
2021/01/10 00:29:38;;;;;;;57.35;12.93;;;2.50;99.90;;;;;;4980978;28;20046;-91
2021/01/10 00:32:05;;;;;;;77.50;13.73;;;2.40;99.90;;;;;;4970373;28;20452;-89
2021/01/10 00:34:32;;;;;;;76.45;13.40;;;2.50;99.90;;;;;;4984720;28;20130;-91
2021/01/10 00:36:58;;;;;;;78.53;13.70;;;2.60;99.90;;;;;;4992708;28;20405;-89
2021/01/10 00:39:24;;;;;;;75.90;14.48;;;2.50;99.90;;;;;;4984481;28;20609;-88
2021/01/10 00:41:50;;;;;;;132.13;16.90;;;2.50;99.90;;;;;;4994765;28;20047;-91
2021/01/10 00:44:16;;;;;;;123.10;16.17;;;2.40;99.90;;;;;;5000125;28;20050;-90
2021/01/10 00:46:41;;;;;;;135.13;17.55;;;2.40;99.90;;;;;;4979537;28;20054;-93
2021/01/10 00:49:07;;;;;;;195.57;19.88;;;2.40;99.90;;;;;;4983247;28;20053;-90
2021/01/10 00:51:34;;;;;;;103.28;16.98;;;2.20;99.90;;;;;;4981948;28;20096;-92
2021/01/10 00:54:00;;;;;;;170.23;18.17;;;2.30;99.90;;;;;;4980060;28;20508;-88
2021/01/10 00:56:25;;;;;;;91.10;17.23;;;2.30;99.90;;;;;;4999239;28;20566;-92
2021/01/10 00:58:51;;;;;;;81.50;16.17;;;2.40;99.90;;;;;;4993516;28;20113;-91
2021/01/10 01:01:17;;;;;;;95.20;16.75;;;2.40;99.90;;;;;;4974956;28;20488;-91
2021/01/10 01:03:43;;;;;;;127.43;16.98;;;2.50;99.90;;;;;;4970040;28;20496;-90
2021/01/10 01:06:12;;;;;;;49.85;15.57;;;2.50;99.90;;;;;;4953392;28;20039;-90
2021/01/10 01:08:38;;;;;;;80.70;15.30;;;2.40;99.90;;;;;;4954128;28;20070;-91
2021/01/10 01:11:03;;;;;;;91.97;16.33;;;2.50;99.90;;;;;;4962344;28;20070;-90
2021/01/10 01:13:29;;;;;;;171.40;18.48;;;2.50;99.90;;;;;;4966133;28;20101;-92
2021/01/10 01:15:55;;;;;;;127.50;18.35;;;2.50;99.90;;;;;;4965853;28;20046;-91
2021/01/10 01:18:21;;;;;;;69.72;15.15;;;2.40;99.90;;;;;;4969250;28;20042;-92
2021/01/10 01:20:46;;;;;;;87.18;14.45;;;2.40;99.90;;;;;;4937739;28;20449;-91
2021/01/10 01:23:12;;;;;;;60.28;12.88;;;2.50;99.90;;;;;;4968417;28;20492;-92
2021/01/10 01:25:38;;;;;;;103.50;15.23;;;2.40;99.90;;;;;;4985887;28;20077;-91
2021/01/10 01:28:05;;;;;;;107.50;15.95;;;2.40;99.90;;;;;;4967596;28;20043;-90
2021/01/10 01:30:31;;;;;;;127.95;15.27;;;2.30;99.90;;;;;;4969650;28;20043;-92
2021/01/10 01:32:57;;;;;;;146.40;19.02;;;2.30;99.90;;;;;;4967242;28;20512;-91
2021/01/10 01:35:23;;;;;;;111.55;18.08;;;2.30;99.90;;;;;;4952556;28;20035;-90
2021/01/10 01:37:49;;;;;;;124.68;18.30;;;2.20;99.90;;;;;;4953758;28;20078;-90
2021/01/10 01:40:15;;;;;;;172.82;19.67;;;2.20;99.90;;;;;;4965577;28;20121;-91
2021/01/10 01:42:41;;;;;;;157.43;17.88;;;2.10;99.90;;;;;;4966409;28;20130;-90
2021/01/10 01:45:08;;;;;;;196.52;17.17;;;2.10;99.90;;;;;;4980964;28;20047;-90
2021/01/10 01:47:35;;;;;;;147.35;14.93;;;2.10;99.90;;;;;;4966732;28;20044;-92
2021/01/10 01:50:04;;;;;;;102.32;15.02;;;2.20;99.90;;;;;;4935405;28;20527;-92
2021/01/10 01:52:30;;;;;;;113.20;14.25;;;2.10;99.90;;;;;;4966202;28;20098;-92
2021/01/10 01:54:56;;;;;;;115.43;15.20;;;2.20;99.90;;;;;;4963060;28;20050;-92
2021/01/10 01:57:22;;;;;;;109.30;15.25;;;2.30;99.90;;;;;;4968399;28;20031;-92
2021/01/10 01:59:48;;;;;;;107.70;13.35;;;2.30;99.90;;;;;;4952657;28;20415;-93
2021/01/10 02:02:14;;;;;;;61.13;12.98;;;2.30;99.90;;;;;;4968593;28;20093;-93
2021/01/10 02:04:54;;;;;;;160.52;15.32;;;2.30;99.90;;;;;;4962999;28;20441;-93
2021/01/10 02:07:34;;;;;;;154.38;16.23;;;2.30;99.90;;;;;;4966022;28;20047;-91
2021/01/10 02:10:03;;;;;;;;;;;2.20;99.90;;;;;;4964061;28;20051;-92
2021/01/10 02:12:31;;;;;;;80.32;13.25;;;2.10;99.90;;;;;;4966437;28;19921;-93
2021/01/10 02:15:00;;;;;;;110.88;14.13;;;2.10;99.90;;;;;;4969509;28;20043;-90
2021/01/10 02:17:28;;;;;;;189.48;15.98;;;2.10;99.90;;;;;;4966466;28;20067;-92
2021/01/10 02:20:05;;;;;;;243.10;18.00;;;2.00;99.90;;;;;;4961729;28;20404;-93
2021/01/10 02:22:41;;;;;;;244.48;13.73;;;1.90;99.90;;;;;;4963607;28;20543;-92
2021/01/10 02:25:09;;;;;;;221.45;12.73;;;1.80;99.90;;;;;;4970318;28;20162;-88
2021/01/10 02:27:35;;;;;;;240.75;12.70;;;1.90;99.90;;;;;;4969136;28;20042;-93
2021/01/10 02:30:02;;;;;;;194.93;11.88;;;1.90;99.90;;;;;;4950246;28;20505;-93
2021/01/10 02:32:30;;;;;;;234.27;12.60;;;1.90;99.90;;;;;;4968698;28;20046;-94
2021/01/10 02:34:59;;;;;;;276.63;13.57;;;1.80;99.90;;;;;;4969165;28;20054;-94
2021/01/10 02:37:54;;;;;;;134.18;10.48;;;1.70;99.90;;;;;;4969728;28;20043;-94
2021/01/10 02:41:04;;;;;;;209.77;12.27;;;1.80;99.90;;;;;;4968456;28;20130;-90
2021/01/10 02:43:33;;;;;;;186.38;12.93;;;1.90;99.90;;;;;;4916591;28;20593;-92
2021/01/10 02:46:03;;;;;;;277.90;12.93;;;1.90;99.90;;;;;;4970342;28;20405;-92
2021/01/10 02:48:29;;;;;;;417.05;14.85;;;1.80;99.90;;;;;;4939761;28;20059;-91
2021/01/10 02:50:55;;;;;;;247.02;11.13;;;1.70;99.90;;;;;;4961533;28;20045;-89
2021/01/10 02:53:21;;;;;;;201.95;9.80;;;1.60;99.90;;;;;;4968169;28;20039;-92
2021/01/10 02:55:47;;;;;;;302.38;12.05;;;1.50;99.90;;;;;;4965757;28;20412;-92
2021/01/10 02:58:22;;;;;;;165.80;10.57;;;1.40;99.90;;;;;;4954278;28;20047;-91
2021/01/10 03:00:53;;;;;;;257.40;12.10;;;1.40;99.90;;;;;;4973919;28;20062;-90
2021/01/10 03:03:19;;;;;;;197.68;11.38;;;1.30;99.90;;;;;;4967466;28;20035;-92
2021/01/10 03:05:47;;;;;;;132.88;9.20;;;1.40;99.90;;;;;;4952940;28;20085;-92
2021/01/10 03:08:14;;;;;;;180.48;9.57;;;1.30;99.90;;;;;;4968828;28;20069;-89
2021/01/10 03:10:40;;;;;;;150.73;8.90;;;1.20;99.90;;;;;;4960873;28;20118;-90
2021/01/10 03:13:06;;;;;;;233.90;11.07;;;1.10;99.90;;;;;;4988931;28;20039;-92
2021/01/10 03:15:33;;;;;;;137.80;8.55;;;1.00;99.90;;;;;;4955794;28;20042;-92
2021/01/10 03:18:15;;;;;;;235.52;12.52;;;0.90;99.90;;;;;;4956292;28;20042;-92
2021/01/10 03:20:41;;;;;;;157.25;10.95;;;0.80;99.90;;;;;;4973674;28;20070;-92
2021/01/10 03:23:07;;;;;;;135.45;10.35;;;0.80;99.90;;;;;;4973171;28;20077;-91
2021/01/10 03:25:33;;;;;;;133.30;10.93;;;0.80;99.90;;;;;;4955306;28;20046;-91
2021/01/10 03:27:58;;;;;;;304.83;17.48;;;0.80;99.90;;;;;;4957274;28;20086;-92
2021/01/10 03:30:24;;;;;;;105.38;9.90;;;0.70;99.90;;;;;;4961869;28;20057;-91
2021/01/10 03:32:50;;;;;;;162.77;10.38;;;0.70;99.90;;;;;;4955891;28;20050;-92
2021/01/10 03:35:17;;;;;;;130.88;10.02;;;0.70;99.90;;;;;;4964972;28;20453;-89
2021/01/10 03:37:44;;;;;;;147.73;9.48;;;0.60;99.90;;;;;;4956898;28;20147;-90
2021/01/10 03:40:10;;;;;;;190.82;11.13;;;0.60;99.90;;;;;;4968247;28;20047;-91
2021/01/10 03:42:36;;;;;;;36.00;7.90;;;0.70;99.90;;;;;;4965145;28;20883;-89
2021/01/10 03:45:06;;;;;;;34.40;8.27;;;0.70;99.90;;;;;;4953610;28;20437;-92
2021/01/10 03:47:32;;;;;;;39.50;8.90;;;0.70;99.90;;;;;;4959126;28;20111;-90
2021/01/10 03:49:58;;;;;;;28.13;6.70;;;0.70;99.90;;;;;;4985066;28;20066;-90
2021/01/10 03:52:23;;;;;;;30.05;7.75;;;0.70;99.90;;;;;;4971141;28;20042;-92
2021/01/10 03:54:50;;;;;;;38.30;8.52;;;0.70;99.90;;;;;;4969630;28;20039;-93
2021/01/10 03:57:16;;;;;;;42.45;9.45;;;0.70;99.90;;;;;;4967285;28;20471;-91
2021/01/10 03:59:41;;;;;;;30.88;7.95;;;0.70;99.90;;;;;;4952215;28;20078;-93
2021/01/10 04:02:07;;;;;;;25.63;8.57;;;0.70;99.90;;;;;;4970693;28;20044;-90
2021/01/10 04:04:33;;;;;;;38.53;9.80;;;0.70;99.90;;;;;;4972010;28;20058;-92
2021/01/10 04:06:59;;;;;;;25.92;8.23;;;0.70;99.90;;;;;;4970035;28;20043;-91
2021/01/10 04:09:24;;;;;;;22.02;8.63;;;0.70;99.90;;;;;;4953552;28;20097;-93
2021/01/10 04:11:50;;;;;;;14.48;8.90;;;0.70;99.90;;;;;;4979323;28;20552;-92
2021/01/10 04:14:16;;;;;;;23.67;8.85;;;0.60;99.90;;;;;;4971879;28;20051;-89
2021/01/10 04:16:42;;;;;;;21.13;8.35;;;0.60;99.90;;;;;;4954644;28;20488;-92
2021/01/10 04:19:07;;;;;;;15.02;9.90;;;0.60;99.90;;;;;;4953479;28;20071;-94
2021/01/10 04:21:34;;;;;;;13.68;8.05;;;0.60;99.90;;;;;;4970957;28;20039;-92
2021/01/10 04:24:01;;;;;;;13.00;7.65;;;0.70;99.90;;;;;;4968622;28;20051;-93
2021/01/10 04:26:27;;;;;;;11.77;7.80;;;0.60;99.90;;;;;;4968863;28;20101;-95
2021/01/10 04:28:53;;;;;;;15.65;8.40;;;0.50;99.90;;;;;;4971384;28;20050;-95
2021/01/10 04:31:19;;;;;;;12.13;8.07;;;0.50;99.90;;;;;;4971190;28;20404;-90
2021/01/10 04:33:45;;;;;;;14.63;7.90;;;0.50;99.90;;;;;;4939672;28;20145;-95
2021/01/10 04:36:11;;;;;;;14.95;8.05;;;0.50;99.90;;;;;;4969498;28;20062;-94
2021/01/10 04:38:37;;;;;;;14.10;8.38;;;0.50;99.90;;;;;;4970815;28;20149;-94
2021/01/10 04:41:03;;;;;;;13.75;7.47;;;0.40;99.90;;;;;;4968408;28;20040;-95
2021/01/10 04:43:29;;;;;;;12.48;7.30;;;0.50;99.90;;;;;;4951329;28;20457;-94
2021/01/10 04:45:56;;;;;;;20.85;7.82;;;0.40;99.90;;;;;;4964336;28;20043;-95
2021/01/10 04:48:22;;;;;;;16.05;6.75;;;0.40;99.90;;;;;;4971727;28;20043;-90
2021/01/10 04:50:48;;;;;;;19.83;8.00;;;0.30;99.90;;;;;;4965011;28;20047;-94
2021/01/10 04:53:19;;;;;;;13.07;7.75;;;0.30;99.90;;;;;;4950617;28;20055;-95
2021/01/10 04:55:47;;;;;;;11.60;7.60;;;0.30;99.90;;;;;;4962927;28;20050;-94
2021/01/10 04:58:13;;;;;;;12.75;8.25;;;0.30;99.90;;;;;;4980820;28;20464;-94
2021/01/10 05:00:40;;;;;;;12.27;8.60;;;0.30;99.90;;;;;;4970410;28;20150;-94
2021/01/10 05:03:16;;;;;;;13.27;7.38;;;0.30;99.90;;;;;;4972147;28;20039;-96
2021/01/10 05:05:42;;;;;;;23.13;7.47;;;0.30;99.90;;;;;;4956769;28;20063;-95
2021/01/10 05:08:12;;;;;;;18.67;7.70;;;0.30;99.90;;;;;;4964125;28;20070;-94
2021/01/10 05:10:38;;;;;;;16.38;6.97;;;0.30;99.90;;;;;;4961619;28;20045;-94
2021/01/10 05:13:05;;;;;;;11.52;6.35;;;0.30;99.90;;;;;;4967489;28;20094;-92
2021/01/10 05:15:32;;;;;;;16.83;6.65;;;0.30;99.90;;;;;;4965009;28;20501;-92
2021/01/10 05:17:59;;;;;;;13.75;6.32;;;0.30;99.90;;;;;;4968732;28;20051;-95
2021/01/10 05:20:30;;;;;;;10.57;5.93;;;0.30;99.90;;;;;;4971956;28;20497;-91
2021/01/10 05:22:59;;;;;;;11.38;7.15;;;0.30;99.90;;;;;;4986910;28;20122;-93
2021/01/10 05:25:26;;;;;;;12.82;6.55;;;0.20;99.90;;;;;;4966928;28;20532;-95
2021/01/10 05:27:54;;;;;;;9.52;6.22;;;0.30;99.90;;;;;;4968269;28;20039;-93
2021/01/10 05:30:31;;;;;;;14.27;5.63;;;0.30;99.90;;;;;;4967144;28;20039;-92
2021/01/10 05:33:00;;;;;;;6.70;5.32;;;0.30;99.90;;;;;;4969045;28;20038;-95
2021/01/10 05:35:26;;;;;;;14.98;6.10;;;0.20;99.90;;;;;;4968914;28;20053;-95
2021/01/10 05:37:57;;;;;;;17.98;6.03;;;0.20;99.90;;;;;;4965506;28;20066;-93
2021/01/10 05:40:28;;;;;;;;;;;0.30;99.90;;;;;;4971044;28;20089;-92
2021/01/10 05:42:55;;;;;;;9.00;5.05;;;0.30;99.90;;;;;;4967898;28;19929;-94
2021/01/10 05:45:33;;;;;;;14.07;5.00;;;0.30;99.90;;;;;;4954064;28;20125;-90
2021/01/10 05:48:11;;;;;;;14.00;5.15;;;0.30;99.90;;;;;;4968112;28;20078;-93
2021/01/10 05:50:51;;;;;;;7.28;4.90;;;0.30;99.90;;;;;;4966537;28;20031;-91
2021/01/10 05:53:21;;;;;;;11.43;5.15;;;0.30;99.90;;;;;;4967522;28;20057;-92
2021/01/10 05:55:50;;;;;;;;;;;0.20;99.90;;;;;;4969981;28;20042;-93
2021/01/10 05:58:16;;;;;;;10.82;5.35;;;0.20;99.90;;;;;;4970914;28;19936;-91
2021/01/10 06:00:42;;;;;;;12.35;4.80;;;0.20;99.90;;;;;;4969133;28;20038;-93
2021/01/10 06:03:09;;;;;;;10.38;4.82;;;0.20;99.90;;;;;;4969413;28;20485;-90
2021/01/10 06:05:36;;;;;;;11.98;5.28;;;0.20;99.90;;;;;;4984246;28;20043;-91
2021/01/10 06:08:01;;;;;;;7.90;4.78;;;0.10;99.90;;;;;;4966266;28;20070;-90
2021/01/10 06:10:29;;;;;;;12.32;6.30;;;0.10;99.90;;;;;;4957276;28;20508;-90
2021/01/10 06:13:02;;;;;;;13.13;4.80;;;0.10;99.90;;;;;;4985658;28;20049;-89
2021/01/10 06:15:31;;;;;;;12.25;4.60;;;0.10;99.90;;;;;;4969874;28;20077;-91
2021/01/10 06:18:00;;;;;;;12.10;4.60;;;0.10;99.90;;;;;;4966171;28;20051;-90
2021/01/10 06:20:28;;;;;;;14.40;5.15;;;0.10;99.90;;;;;;4961059;28;20039;-90
2021/01/10 06:22:55;;;;;;;19.27;4.28;;;0.10;99.90;;;;;;4971626;28;20043;-92
2021/01/10 06:25:23;;;;;;;10.15;4.22;;;0.00;99.90;;;;;;4966014;28;20094;-92
2021/01/10 06:28:02;;;;;;;9.00;4.43;;;0.00;99.90;;;;;;4934146;28;21542;-93
2021/01/10 06:30:33;;;;;;;14.13;4.43;;;0.00;99.90;;;;;;4965698;28;20126;-91
2021/01/10 06:33:14;;;;;;;11.43;4.65;;;0.00;99.90;;;;;;4968798;28;20093;-92
2021/01/10 06:35:41;;;;;;;9.18;4.20;;;0.00;99.90;;;;;;4965218;28;20043;-92
2021/01/10 06:38:09;;;;;;;16.00;4.80;;;0.00;99.90;;;;;;4967938;28;20050;-91
2021/01/10 06:40:38;;;;;;;10.10;4.22;;;0.00;99.90;;;;;;4964455;28;20524;-90
2021/01/10 06:43:06;;;;;;;16.60;5.90;;;0.10;99.90;;;;;;4954385;28;20050;-90
2021/01/10 06:45:39;;;;;;;8.32;4.55;;;0.10;99.90;;;;;;4953912;28;20053;-91
2021/01/10 06:48:07;;;;;;;18.30;4.85;;;0.00;99.90;;;;;;4972826;28;20051;-91
2021/01/10 06:50:33;;;;;;;16.30;4.80;;;0.10;99.90;;;;;;4970187;28;20047;-91
2021/01/10 06:53:11;;;;;;;13.43;4.30;;;0.10;99.90;;;;;;4963598;28;20051;-92
2021/01/10 06:55:39;;;;;;;14.20;4.82;;;0.10;99.90;;;;;;4957921;28;20050;-91
2021/01/10 06:58:09;;;;;;;20.73;4.68;;;0.20;99.90;;;;;;4986279;28;20046;-90
2021/01/10 07:00:51;;;;;;;8.40;3.10;;;0.20;99.90;;;;;;4972283;28;20046;-90
2021/01/10 07:03:17;;;;;;;18.65;3.90;;;0.30;99.90;;;;;;4986128;28;20124;-90
2021/01/10 07:06:06;;;;;;;16.10;3.70;;;0.40;99.90;;;;;;4987784;28;20444;-90
2021/01/10 07:08:45;;;;;;;8.52;3.35;;;0.30;99.90;;;;;;4971893;28;20089;-91
2021/01/10 07:11:20;;;;;;;17.70;3.63;;;0.30;99.90;;;;;;4973898;28;20049;-91
2021/01/10 07:14:09;;;;;;;14.57;4.38;;;0.30;99.90;;;;;;4968771;28;20047;-92
2021/01/10 07:16:36;;;;;;;11.13;4.32;;;0.30;99.90;;;;;;4967724;28;20079;-90
2021/01/10 07:19:04;;;;;;;10.65;3.65;;;0.30;99.90;;;;;;4967195;28;20507;-90
2021/01/10 07:21:30;;;;;;;8.02;3.92;;;0.40;99.90;;;;;;4962326;28;20047;-90
2021/01/10 07:24:27;;;;;;;13.15;4.25;;;0.40;99.90;;;;;;4949631;28;20058;-90
2021/01/10 07:26:55;;;;;;;21.38;3.42;;;0.40;99.90;;;;;;4960333;28;20698;-91
2021/01/10 07:29:35;;;;;;;14.13;4.07;;;0.40;99.90;;;;;;4973263;28;20606;-91
2021/01/10 07:32:05;;;;;;;;;;;0.40;99.90;;;;;;4969764;28;20039;-90
2021/01/10 07:34:33;;;;;;;16.65;4.20;;;0.40;99.90;;;;;;4970739;28;20367;-91
2021/01/10 07:37:01;;;;;;;12.27;3.80;;;0.40;99.90;;;;;;4969006;28;20070;-90
2021/01/10 07:39:29;;;;;;;8.40;3.42;;;0.40;99.90;;;;;;4966985;28;20047;-91
2021/01/10 07:42:19;;;;;;;10.60;3.53;;;0.50;99.90;;;;;;4968020;28;20042;-91
2021/01/10 07:44:58;;;;;;;12.50;3.58;;;0.40;99.90;;;;;;4970002;28;20083;-91
2021/01/10 07:47:33;;;;;;;12.63;3.42;;;0.50;99.90;;;;;;4957418;28;20117;-91
2021/01/10 07:50:01;;;;;;;17.20;3.80;;;0.50;99.90;;;;;;4971455;28;20492;-90
2021/01/10 07:52:42;;;;;;;13.70;3.70;;;0.50;99.90;;;;;;4972912;28;20441;-90
2021/01/10 07:55:19;;;;;;;10.40;3.60;;;0.50;99.90;;;;;;4967339;28;20042;-91
2021/01/10 07:58:00;;;;;;;13.98;4.07;;;0.60;99.90;;;;;;4966646;28;20051;-89
2021/01/10 08:00:32;;;;;;;13.98;3.40;;;0.60;99.90;;;;;;4956476;28;20547;-89
2021/01/10 08:03:01;;;;;;;13.23;3.80;;;0.60;99.90;;;;;;4981834;28;20101;-91
2021/01/10 08:05:37;;;;;;;12.95;3.67;;;0.60;99.90;;;;;;4990925;28;20041;-90
2021/01/10 08:08:18;;;;;;;10.23;3.72;;;0.70;99.90;;;;;;4981883;28;20043;-90
2021/01/10 08:10:45;;;;;;;13.07;3.60;;;0.70;99.90;;;;;;4949590;28;20535;-90
2021/01/10 08:13:26;;;;;;;8.23;4.15;;;0.70;99.90;;;;;;4959083;28;20436;-90
2021/01/10 08:15:53;;;;;;;18.23;4.22;;;0.90;99.90;;;;;;4956991;28;20069;-92
2021/01/10 08:18:20;;;;;;;21.58;4.15;;;0.80;99.90;;;;;;4966622;28;20066;-92
2021/01/10 08:20:54;;;;;;;6.05;3.38;;;0.80;99.90;;;;;;4994706;28;20046;-92
2021/01/10 08:23:20;;;;;;;15.45;3.42;;;0.80;99.90;;;;;;4985723;28;20042;-91
2021/01/10 08:25:46;;;;;;;18.55;4.30;;;0.80;99.90;;;;;;4976559;28;20039;-90
2021/01/10 08:28:19;;;;;;;16.20;4.10;;;0.90;99.90;;;;;;4991672;28;20043;-91
2021/01/10 08:30:46;;;;;;;10.00;3.88;;;0.80;99.90;;;;;;4974524;28;20401;-90
2021/01/10 08:33:21;;;;;;;8.88;4.03;;;0.90;99.90;;;;;;4975322;28;20539;-91
2021/01/10 08:35:48;;;;;;;8.55;3.47;;;0.90;99.90;;;;;;4988712;28;20401;-91
2021/01/10 08:38:15;;;;;;;16.40;3.90;;;0.90;99.90;;;;;;4976807;28;20081;-91
2021/01/10 08:40:41;;;;;;;10.68;3.72;;;0.90;99.90;;;;;;4975271;28;20051;-90
2021/01/10 08:43:07;;;;;;;10.77;3.55;;;0.80;99.90;;;;;;4977792;28;20122;-90
2021/01/10 08:45:33;;;;;;;10.48;3.88;;;0.90;99.90;;;;;;4991316;28;20620;-90
2021/01/10 08:48:04;;;;;;;9.98;3.75;;;0.90;99.90;;;;;;4974562;28;20050;-92
2021/01/10 08:50:40;;;;;;;25.83;4.60;;;0.90;99.90;;;;;;4974472;28;20038;-92
2021/01/10 08:53:07;;;;;;;21.55;4.35;;;0.90;99.90;;;;;;4971059;28;20051;-91
2021/01/10 08:55:39;;;;;;;11.15;3.60;;;0.90;99.90;;;;;;4970783;28;20071;-92
2021/01/10 08:58:07;;;;;;;10.40;4.10;;;0.90;99.90;;;;;;4984892;28;20117;-92
2021/01/10 09:00:35;;;;;;;11.45;4.13;;;1.00;99.90;;;;;;4982331;28;20051;-93
2021/01/10 09:03:15;;;;;;;15.85;4.47;;;0.90;99.90;;;;;;4986039;28;20049;-90
2021/01/10 09:05:42;;;;;;;11.15;3.75;;;1.00;99.90;;;;;;4963578;28;20051;-94
2021/01/10 09:08:21;;;;;;;10.60;4.13;;;1.00;99.90;;;;;;4983916;28;20138;-93
2021/01/10 09:10:56;;;;;;;13.82;5.78;;;1.00;99.90;;;;;;4980341;28;20039;-93
2021/01/10 09:13:26;;;;;;;6.50;3.53;;;1.00;99.90;;;;;;4967635;28;20047;-90
2021/01/10 09:15:54;;;;;;;18.48;5.00;;;1.00;99.90;;;;;;4969723;28;20125;-93
2021/01/10 09:18:23;;;;;;;11.73;4.53;;;1.10;99.90;;;;;;4963287;28;20058;-92
2021/01/10 09:20:51;;;;;;;11.95;3.78;;;1.10;99.90;;;;;;4976790;28;20137;-91
2021/01/10 09:23:19;;;;;;;10.38;4.85;;;1.10;99.90;;;;;;4971661;28;20655;-91
2021/01/10 09:25:45;;;;;;;14.43;4.72;;;1.20;99.90;;;;;;4987993;28;20047;-94
2021/01/10 09:28:16;;;;;;;13.98;3.97;;;1.20;99.90;;;;;;4968990;28;20054;-91
2021/01/10 09:30:56;;;;;;;21.73;4.80;;;1.20;99.90;;;;;;4971486;28;20070;-93
2021/01/10 09:33:25;;;;;;;13.27;5.22;;;1.30;99.90;;;;;;4983396;28;20488;-91
2021/01/10 09:35:52;;;;;;;19.02;5.57;;;1.30;99.90;;;;;;4978395;28;20436;-92
2021/01/10 09:38:22;;;;;;;21.35;4.57;;;1.30;99.90;;;;;;4971660;28;20481;-91
2021/01/10 09:41:06;;;;;;;;;;;1.40;99.90;;;;;;4984499;28;20042;-93
2021/01/10 09:43:35;;;;;;;19.55;4.70;;;1.40;99.90;;;;;;4955142;28;20506;-91
2021/01/10 09:46:01;;;;;;;9.35;4.60;;;1.40;99.90;;;;;;4957678;28;20051;-92
2021/01/10 09:48:27;;;;;;;12.93;4.43;;;1.50;99.90;;;;;;4971195;28;20764;-91
2021/01/10 09:50:52;;;;;;;10.95;5.47;;;1.50;99.90;;;;;;4971746;28;20613;-91
2021/01/10 09:53:25;;;;;;;13.57;4.97;;;1.50;99.90;;;;;;4970129;28;20477;-91
2021/01/10 09:55:51;;;;;;;11.25;5.57;;;1.60;99.90;;;;;;4963749;28;20050;-93
2021/01/10 09:58:17;;;;;;;18.17;5.97;;;1.60;99.90;;;;;;4981696;28;20043;-92
2021/01/10 10:00:56;;;;;;;11.88;5.57;;;1.70;99.90;;;;;;4970003;28;20499;-95
2021/01/10 10:03:24;;;;;;;19.52;5.50;;;1.70;99.90;;;;;;4982199;28;20515;-96
2021/01/10 10:05:57;;;;;;;13.65;5.10;;;1.70;99.90;;;;;;4969830;28;20047;-93
2021/01/10 10:08:23;;;;;;;16.45;5.57;;;1.70;99.90;;;;;;4987532;28;20051;-95
2021/01/10 10:10:49;;;;;;;11.18;5.47;;;1.70;99.90;;;;;;4965217;28;20062;-91
2021/01/10 10:13:24;;;;;;;20.65;6.40;;;1.70;99.90;;;;;;4964916;28;20050;-91
2021/01/10 10:15:53;;;;;;;13.48;5.43;;;1.70;99.90;;;;;;4969433;28;20038;-93
2021/01/10 10:18:28;;;;;;;12.40;5.88;;;1.80;99.90;;;;;;4969371;28;20543;-94
2021/01/10 10:20:55;;;;;;;19.48;5.90;;;1.80;99.90;;;;;;4961797;28;20055;-93
2021/01/10 10:23:21;;;;;;;10.35;5.43;;;1.80;99.90;;;;;;4966158;28;20054;-93
2021/01/10 10:25:49;;;;;;;16.38;6.18;;;1.80;99.90;;;;;;4953872;28;20493;-92
2021/01/10 10:28:15;;;;;;;20.70;5.88;;;1.80;99.90;;;;;;4957828;28;20512;-93
2021/01/10 10:30:42;;;;;;;20.63;6.05;;;1.80;99.90;;;;;;4944320;28;20051;-92
2021/01/10 10:33:09;;;;;;;10.45;5.70;;;1.80;99.90;;;;;;4961518;28;20043;-91
2021/01/10 10:35:35;;;;;;;16.13;6.18;;;1.70;99.90;;;;;;4950745;28;20485;-92
2021/01/10 10:38:02;;;;;;;23.20;6.82;;;1.80;99.90;;;;;;4961350;28;20063;-93
2021/01/10 10:40:28;;;;;;;15.60;6.28;;;1.80;99.90;;;;;;4945695;28;20453;-90
2021/01/10 10:42:54;;;;;;;17.92;6.35;;;1.90;99.90;;;;;;4971474;28;20053;-90
2021/01/10 10:45:20;;;;;;;13.90;6.68;;;1.90;99.90;;;;;;4987067;28;20117;-90
2021/01/10 10:47:46;;;;;;;17.88;5.97;;;1.90;99.90;;;;;;4967646;28;20306;-89
2021/01/10 10:50:12;;;;;;;11.02;5.45;;;2.00;99.90;;;;;;4979222;28;20054;-90
2021/01/10 10:52:40;;;;;;;14.10;6.70;;;2.00;99.90;;;;;;4976658;28;20130;-89
2021/01/10 10:55:06;;;;;;;16.30;6.50;;;2.10;99.90;;;;;;4972769;28;20576;-90
2021/01/10 10:57:32;;;;;;;14.20;5.90;;;2.10;99.90;;;;;;4988231;28;20049;-90
2021/01/10 10:59:57;;;;;;;21.40;6.93;;;2.10;99.90;;;;;;4983195;28;20046;-91
2021/01/10 11:02:24;;;;;;;10.65;6.32;;;2.10;99.90;;;;;;4967335;28;20422;-91
2021/01/10 11:04:50;;;;;;;14.30;6.78;;;2.10;99.90;;;;;;4966948;28;20049;-90
2021/01/10 11:07:17;;;;;;;16.08;6.90;;;2.10;99.90;;;;;;4977383;28;20039;-89
2021/01/10 11:09:45;;;;;;;19.17;6.63;;;2.10;99.90;;;;;;4965227;28;20508;-91
2021/01/10 11:12:11;;;;;;;18.40;6.78;;;2.20;99.90;;;;;;4959665;28;20043;-90
2021/01/10 11:14:37;;;;;;;15.90;7.00;;;2.20;99.90;;;;;;4958948;28;20055;-90
2021/01/10 11:17:04;;;;;;;10.50;6.03;;;2.20;99.90;;;;;;4975727;28;20043;-90
2021/01/10 11:19:30;;;;;;;13.73;6.70;;;2.20;99.90;;;;;;4969639;28;20038;-90
2021/01/10 11:21:56;;;;;;;13.73;6.65;;;2.30;99.90;;;;;;4943697;28;20055;-88
2021/01/10 11:24:21;;;;;;;13.68;6.82;;;2.30;99.90;;;;;;4968327;28;20055;-90
2021/01/10 11:26:47;;;;;;;14.25;6.93;;;2.40;99.90;;;;;;4963116;28;20046;-91
2021/01/10 11:29:14;;;;;;;9.13;5.72;;;2.50;99.90;;;;;;4977848;28;20050;-90
2021/01/10 11:31:41;;;;;;;16.60;6.45;;;2.40;99.90;;;;;;4966715;28;20102;-90
2021/01/10 11:34:12;;;;;;;18.40;7.90;;;2.50;99.90;;;;;;4964322;28;20106;-90
2021/01/10 11:36:49;;;;;;;16.98;6.65;;;2.50;99.90;;;;;;4968918;28;20047;-89
2021/01/10 11:39:17;;;;;;;15.82;7.55;;;2.60;99.90;;;;;;4971726;28;20624;-90
2021/01/10 11:41:45;;;;;;;16.55;6.38;;;2.60;99.90;;;;;;4978235;28;20074;-90
2021/01/10 11:44:12;;;;;;;20.15;7.22;;;2.60;99.90;;;;;;4974410;28;20094;-88
2021/01/10 11:46:41;;;;;;;20.17;7.32;;;2.70;99.90;;;;;;4975041;28;20118;-90
2021/01/10 11:49:08;;;;;;;13.52;7.03;;;2.70;99.90;;;;;;4953447;28;20059;-90
2021/01/10 11:51:33;;;;;;;20.58;7.40;;;2.80;99.90;;;;;;4969757;28;20090;-90
2021/01/10 11:53:59;;;;;;;19.67;7.30;;;2.90;99.90;;;;;;4970470;28;20059;-89
2021/01/10 11:56:25;;;;;;;14.38;7.78;;;2.90;99.90;;;;;;4966687;28;20130;-89
2021/01/10 11:58:51;;;;;;;16.75;7.65;;;3.00;99.90;;;;;;4975376;28;20074;-90
2021/01/10 12:01:17;;;;;;;25.00;8.85;;;3.00;99.90;;;;;;4961238;28;20063;-91
2021/01/10 12:03:43;;;;;;;22.42;8.25;;;3.10;99.90;;;;;;4968532;28;20047;-92
2021/01/10 12:06:09;;;;;;;19.10;8.38;;;3.20;99.90;;;;;;4987760;28;20086;-89
2021/01/10 12:08:36;;;;;;;26.35;9.20;;;3.20;99.90;;;;;;4981972;28;20070;-89
2021/01/10 12:11:01;;;;;;;24.20;8.80;;;3.30;99.90;;;;;;4966014;28;20047;-90
2021/01/10 12:13:27;;;;;;;15.55;9.05;;;3.30;99.90;;;;;;4951847;28;20393;-89
2021/01/10 12:15:55;;;;;;;15.18;8.98;;;3.30;99.90;;;;;;4953646;28;20050;-89
2021/01/10 12:18:22;;;;;;;14.25;8.05;;;3.30;99.90;;;;;;4970711;28;20070;-89
2021/01/10 12:20:47;;;;;;;17.92;9.38;;;3.30;99.90;;;;;;4969614;28;20039;-90
2021/01/10 12:23:14;;;;;;;18.85;9.18;;;3.30;99.90;;;;;;4984096;28;20461;-89
2021/01/10 12:25:39;;;;;;;25.77;9.80;;;3.30;99.90;;;;;;4970094;28;20109;-89
2021/01/10 12:28:05;;;;;;;16.55;9.30;;;3.40;99.90;;;;;;4937564;28;20492;-90
2021/01/10 12:30:31;;;;;;;17.55;9.40;;;3.40;99.90;;;;;;4954778;28;20485;-89
2021/01/10 12:32:58;;;;;;;19.63;10.00;;;3.50;99.90;;;;;;4968530;28;20137;-93
2021/01/10 12:35:24;;;;;;;21.05;10.38;;;3.50;99.90;;;;;;4978232;28;20030;-94
2021/01/10 12:37:50;;;;;;;22.02;10.05;;;3.50;99.90;;;;;;4970736;28;20090;-92
2021/01/10 12:40:17;;;;;;;16.75;10.20;;;3.50;99.90;;;;;;4973835;28;20074;-89
2021/01/10 12:42:43;;;;;;;20.88;9.15;;;3.50;99.90;;;;;;4953177;28;20035;-90
2021/01/10 12:45:11;;;;;;;20.52;10.15;;;3.50;99.90;;;;;;4956258;28;20130;-88
2021/01/10 12:47:40;;;;;;;20.70;11.00;;;3.50;99.90;;;;;;4955450;28;20045;-89
2021/01/10 12:50:07;;;;;;;19.55;11.35;;;3.50;99.90;;;;;;4966267;28;20042;-87